sensor_id;sensor_type;location;lat;lon;timestamp;pressure;altitude;pressure_sealevel;temperature
69420;BMP280;71621;52.030;113.516;2024-01-25T00:00:48;94477.31;;;-14.03
69420;BMP280;71621;52.030;113.516;2024-01-25T00:03:53;94484.53;;;-14.16
69420;BMP280;71621;52.030;113.516;2024-01-25T00:06:57;94487.53;;;-14.32
69420;BMP280;71621;52.030;113.516;2024-01-25T00:10:01;94487.56;;;-14.42
69420;BMP280;71621;52.030;113.516;2024-01-25T00:13:06;94494.91;;;-14.49
69420;BMP280;71621;52.030;113.516;2024-01-25T00:16:10;94486.34;;;-14.46
69420;BMP280;71621;52.030;113.516;2024-01-25T00:19:14;94496.53;;;-14.37
69420;BMP280;71621;52.030;113.516;2024-01-25T00:22:18;94508.50;;;-14.34
69420;BMP280;71621;52.030;113.516;2024-01-25T00:25:22;94505.88;;;-14.25
69420;BMP280;71621;52.030;113.516;2024-01-25T00:28:26;94507.22;;;-14.15
69420;BMP280;71621;52.030;113.516;2024-01-25T00:31:31;94507.31;;;-14.09
69420;BMP280;71621;52.030;113.516;2024-01-25T00:34:36;94505.47;;;-14.08
69420;BMP280;71621;52.030;113.516;2024-01-25T00:37:41;94519.28;;;-14.06
69420;BMP280;71621;52.030;113.516;2024-01-25T00:40:45;94511.31;;;-14.08
69420;BMP280;71621;52.030;113.516;2024-01-25T00:43:49;94522.03;;;-14.09
69420;BMP280;71621;52.030;113.516;2024-01-25T00:46:54;94518.56;;;-14.06
69420;BMP280;71621;52.030;113.516;2024-01-25T00:49:58;94523.59;;;-14.12
69420;BMP280;71621;52.030;113.516;2024-01-25T00:53:02;94517.16;;;-14.07
69420;BMP280;71621;52.030;113.516;2024-01-25T00:56:06;94517.25;;;-14.02
69420;BMP280;71621;52.030;113.516;2024-01-25T00:59:10;94519.81;;;-14.02
69420;BMP280;71621;52.030;113.516;2024-01-25T01:02:14;94522.84;;;-14.03
69420;BMP280;71621;52.030;113.516;2024-01-25T01:05:19;94523.16;;;-14.11
69420;BMP280;71621;52.030;113.516;2024-01-25T01:08:23;94530.34;;;-14.15
69420;BMP280;71621;52.030;113.516;2024-01-25T01:11:27;94531.88;;;-14.08
69420;BMP280;71621;52.030;113.516;2024-01-25T01:14:30;94529.72;;;-14.09
69420;BMP280;71621;52.030;113.516;2024-01-25T01:17:34;94534.88;;;-14.33
69420;BMP280;71621;52.030;113.516;2024-01-25T01:20:38;94536.56;;;-14.54
69420;BMP280;71621;52.030;113.516;2024-01-25T01:23:42;94527.47;;;-14.65
69420;BMP280;71621;52.030;113.516;2024-01-25T01:26:46;94528.03;;;-14.61
69420;BMP280;71621;52.030;113.516;2024-01-25T01:29:49;94525.13;;;-14.53
69420;BMP280;71621;52.030;113.516;2024-01-25T01:32:53;94543.00;;;-14.59
69420;BMP280;71621;52.030;113.516;2024-01-25T01:35:57;94538.97;;;-14.51
69420;BMP280;71621;52.030;113.516;2024-01-25T01:39:01;94534.38;;;-14.47
69420;BMP280;71621;52.030;113.516;2024-01-25T01:42:04;94551.84;;;-14.36
69420;BMP280;71621;52.030;113.516;2024-01-25T01:45:11;94560.97;;;-14.35
69420;BMP280;71621;52.030;113.516;2024-01-25T01:48:16;94564.13;;;-14.16
69420;BMP280;71621;52.030;113.516;2024-01-25T01:51:20;94563.09;;;-14.09
69420;BMP280;71621;52.030;113.516;2024-01-25T01:54:24;94574.91;;;-14.03
69420;BMP280;71621;52.030;113.516;2024-01-25T01:57:30;94574.59;;;-13.96
69420;BMP280;71621;52.030;113.516;2024-01-25T02:00:34;94585.13;;;-13.94
69420;BMP280;71621;52.030;113.516;2024-01-25T02:03:40;94571.19;;;-14.02
69420;BMP280;71621;52.030;113.516;2024-01-25T02:06:43;94581.16;;;-13.80
69420;BMP280;71621;52.030;113.516;2024-01-25T02:09:49;94581.34;;;-13.69
69420;BMP280;71621;52.030;113.516;2024-01-25T02:12:53;94568.16;;;-13.47
69420;BMP280;71621;52.030;113.516;2024-01-25T02:15:57;94570.50;;;-13.34
69420;BMP280;71621;52.030;113.516;2024-01-25T02:19:00;94566.16;;;-13.13
69420;BMP280;71621;52.030;113.516;2024-01-25T02:22:05;94562.94;;;-12.93
69420;BMP280;71621;52.030;113.516;2024-01-25T02:25:09;94572.59;;;-12.88
69420;BMP280;71621;52.030;113.516;2024-01-25T02:28:13;94571.09;;;-12.80
69420;BMP280;71621;52.030;113.516;2024-01-25T02:31:16;94570.34;;;-12.80
69420;BMP280;71621;52.030;113.516;2024-01-25T02:34:21;94576.53;;;-12.57
69420;BMP280;71621;52.030;113.516;2024-01-25T02:37:24;94575.06;;;-12.44
69420;BMP280;71621;52.030;113.516;2024-01-25T02:40:28;94588.38;;;-12.25
69420;BMP280;71621;52.030;113.516;2024-01-25T02:43:32;94583.84;;;-12.15
69420;BMP280;71621;52.030;113.516;2024-01-25T02:46:36;94579.97;;;-12.05
69420;BMP280;71621;52.030;113.516;2024-01-25T02:49:41;94586.13;;;-11.97
69420;BMP280;71621;52.030;113.516;2024-01-25T02:52:45;94597.47;;;-11.89
69420;BMP280;71621;52.030;113.516;2024-01-25T02:55:50;94602.91;;;-11.87
69420;BMP280;71621;52.030;113.516;2024-01-25T02:58:53;94609.38;;;-11.91
69420;BMP280;71621;52.030;113.516;2024-01-25T03:01:57;94607.66;;;-12.00
69420;BMP280;71621;52.030;113.516;2024-01-25T03:05:01;94613.97;;;-12.01
69420;BMP280;71621;52.030;113.516;2024-01-25T03:08:05;94605.25;;;-12.03
69420;BMP280;71621;52.030;113.516;2024-01-25T03:11:10;94598.97;;;-12.02
69420;BMP280;71621;52.030;113.516;2024-01-25T03:14:13;94590.41;;;-11.94
69420;BMP280;71621;52.030;113.516;2024-01-25T03:17:17;94598.84;;;-11.93
69420;BMP280;71621;52.030;113.516;2024-01-25T03:20:20;94598.50;;;-12.01
69420;BMP280;71621;52.030;113.516;2024-01-25T03:23:25;94596.13;;;-12.04
69420;BMP280;71621;52.030;113.516;2024-01-25T03:26:28;94592.22;;;-12.00
69420;BMP280;71621;52.030;113.516;2024-01-25T03:29:32;94591.34;;;-11.91
69420;BMP280;71621;52.030;113.516;2024-01-25T03:32:35;94606.66;;;-11.82
69420;BMP280;71621;52.030;113.516;2024-01-25T03:35:39;94599.44;;;-11.57
69420;BMP280;71621;52.030;113.516;2024-01-25T03:38:43;94597.72;;;-11.40
69420;BMP280;71621;52.030;113.516;2024-01-25T03:41:47;94586.59;;;-11.26
69420;BMP280;71621;52.030;113.516;2024-01-25T03:44:51;94601.00;;;-11.08
69420;BMP280;71621;52.030;113.516;2024-01-25T03:47:55;94598.28;;;-10.99
69420;BMP280;71621;52.030;113.516;2024-01-25T03:50:59;94595.06;;;-10.88
69420;BMP280;71621;52.030;113.516;2024-01-25T03:54:03;94603.63;;;-10.71
69420;BMP280;71621;52.030;113.516;2024-01-25T03:57:06;94598.28;;;-10.56
69420;BMP280;71621;52.030;113.516;2024-01-25T04:00:11;94600.81;;;-10.30
69420;BMP280;71621;52.030;113.516;2024-01-25T04:03:15;94600.59;;;-10.15
69420;BMP280;71621;52.030;113.516;2024-01-25T04:06:18;94599.28;;;-9.99
69420;BMP280;71621;52.030;113.516;2024-01-25T04:09:22;94592.72;;;-9.84
69420;BMP280;71621;52.030;113.516;2024-01-25T04:12:26;94584.28;;;-9.73
69420;BMP280;71621;52.030;113.516;2024-01-25T04:15:30;94597.97;;;-9.50
69420;BMP280;71621;52.030;113.516;2024-01-25T04:18:34;94594.66;;;-9.39
69420;BMP280;71621;52.030;113.516;2024-01-25T04:21:38;94598.44;;;-9.29
69420;BMP280;71621;52.030;113.516;2024-01-25T04:24:42;94596.56;;;-9.17
69420;BMP280;71621;52.030;113.516;2024-01-25T04:27:47;94602.69;;;-9.09
69420;BMP280;71621;52.030;113.516;2024-01-25T04:30:51;94594.19;;;-8.98
69420;BMP280;71621;52.030;113.516;2024-01-25T04:33:56;94596.31;;;-8.97
69420;BMP280;71621;52.030;113.516;2024-01-25T04:37:00;94596.75;;;-8.87
69420;BMP280;71621;52.030;113.516;2024-01-25T04:40:04;94599.09;;;-8.78
69420;BMP280;71621;52.030;113.516;2024-01-25T04:43:09;94596.75;;;-8.70
69420;BMP280;71621;52.030;113.516;2024-01-25T04:46:15;94589.91;;;-8.62
69420;BMP280;71621;52.030;113.516;2024-01-25T04:49:18;94591.06;;;-8.58
69420;BMP280;71621;52.030;113.516;2024-01-25T04:52:22;94596.03;;;-8.54
69420;BMP280;71621;52.030;113.516;2024-01-25T04:55:26;94587.50;;;-8.43
69420;BMP280;71621;52.030;113.516;2024-01-25T04:58:30;94602.06;;;-8.35
69420;BMP280;71621;52.030;113.516;2024-01-25T05:01:33;94586.72;;;-8.27
69420;BMP280;71621;52.030;113.516;2024-01-25T05:04:37;94593.53;;;-8.24
69420;BMP280;71621;52.030;113.516;2024-01-25T05:07:43;94595.63;;;-8.17
69420;BMP280;71621;52.030;113.516;2024-01-25T05:10:47;94594.66;;;-8.14
69420;BMP280;71621;52.030;113.516;2024-01-25T05:13:50;94594.44;;;-8.16
69420;BMP280;71621;52.030;113.516;2024-01-25T05:16:54;94591.84;;;-8.10
69420;BMP280;71621;52.030;113.516;2024-01-25T05:19:57;94586.13;;;-8.03
69420;BMP280;71621;52.030;113.516;2024-01-25T05:23:04;94575.75;;;-7.97
69420;BMP280;71621;52.030;113.516;2024-01-25T05:26:08;94568.88;;;-7.89
69420;BMP280;71621;52.030;113.516;2024-01-25T05:29:11;94565.53;;;-7.84
69420;BMP280;71621;52.030;113.516;2024-01-25T05:32:15;94566.94;;;-7.83
69420;BMP280;71621;52.030;113.516;2024-01-25T05:35:20;94562.91;;;-7.79
69420;BMP280;71621;52.030;113.516;2024-01-25T05:38:24;94556.75;;;-7.76
69420;BMP280;71621;52.030;113.516;2024-01-25T05:41:27;94562.41;;;-7.71
69420;BMP280;71621;52.030;113.516;2024-01-25T05:44:31;94565.16;;;-7.64
69420;BMP280;71621;52.030;113.516;2024-01-25T05:47:35;94554.97;;;-7.56
69420;BMP280;71621;52.030;113.516;2024-01-25T05:50:39;94558.28;;;-7.56
69420;BMP280;71621;52.030;113.516;2024-01-25T05:53:42;94559.16;;;-7.48
69420;BMP280;71621;52.030;113.516;2024-01-25T05:56:46;94560.50;;;-7.41
69420;BMP280;71621;52.030;113.516;2024-01-25T05:59:51;94562.38;;;-7.36
69420;BMP280;71621;52.030;113.516;2024-01-25T06:02:54;94562.59;;;-7.34
69420;BMP280;71621;52.030;113.516;2024-01-25T06:05:58;94563.50;;;-7.31
69420;BMP280;71621;52.030;113.516;2024-01-25T06:09:02;94561.16;;;-7.35
69420;BMP280;71621;52.030;113.516;2024-01-25T06:12:15;94563.94;;;-7.27
69420;BMP280;71621;52.030;113.516;2024-01-25T06:15:18;94556.88;;;-7.27
69420;BMP280;71621;52.030;113.516;2024-01-25T06:18:22;94548.38;;;-7.27
69420;BMP280;71621;52.030;113.516;2024-01-25T06:21:26;94559.19;;;-7.23
69420;BMP280;71621;52.030;113.516;2024-01-25T06:24:30;94563.22;;;-7.22
69420;BMP280;71621;52.030;113.516;2024-01-25T06:27:33;94557.25;;;-7.17
69420;BMP280;71621;52.030;113.516;2024-01-25T06:30:38;94548.69;;;-7.12
69420;BMP280;71621;52.030;113.516;2024-01-25T06:33:41;94541.88;;;-7.15
69420;BMP280;71621;52.030;113.516;2024-01-25T06:36:50;94542.97;;;-7.05
69420;BMP280;71621;52.030;113.516;2024-01-25T06:39:54;94552.59;;;-7.00
69420;BMP280;71621;52.030;113.516;2024-01-25T06:42:57;94549.25;;;-6.95
69420;BMP280;71621;52.030;113.516;2024-01-25T06:46:01;94541.38;;;-6.89
69420;BMP280;71621;52.030;113.516;2024-01-25T06:49:06;94559.19;;;-6.74
69420;BMP280;71621;52.030;113.516;2024-01-25T06:52:10;94551.41;;;-6.74
69420;BMP280;71621;52.030;113.516;2024-01-25T06:55:15;94554.19;;;-6.66
69420;BMP280;71621;52.030;113.516;2024-01-25T06:58:19;94552.41;;;-6.58
69420;BMP280;71621;52.030;113.516;2024-01-25T07:01:24;94559.03;;;-6.57
69420;BMP280;71621;52.030;113.516;2024-01-25T07:04:28;94555.19;;;-6.75
69420;BMP280;71621;52.030;113.516;2024-01-25T07:07:32;94548.53;;;-6.71
69420;BMP280;71621;52.030;113.516;2024-01-25T07:10:36;94552.28;;;-6.66
69420;BMP280;71621;52.030;113.516;2024-01-25T07:13:41;94557.19;;;-6.62
69420;BMP280;71621;52.030;113.516;2024-01-25T07:16:44;94558.06;;;-6.54
69420;BMP280;71621;52.030;113.516;2024-01-25T07:19:48;94551.84;;;-6.51
69420;BMP280;71621;52.030;113.516;2024-01-25T07:22:52;94551.34;;;-6.50
69420;BMP280;71621;52.030;113.516;2024-01-25T07:25:56;94554.88;;;-6.47
69420;BMP280;71621;52.030;113.516;2024-01-25T07:29:00;94567.88;;;-6.47
69420;BMP280;71621;52.030;113.516;2024-01-25T07:32:03;94562.47;;;-6.49
69420;BMP280;71621;52.030;113.516;2024-01-25T07:35:07;94570.75;;;-6.51
69420;BMP280;71621;52.030;113.516;2024-01-25T07:38:14;94564.66;;;-6.53
69420;BMP280;71621;52.030;113.516;2024-01-25T07:41:17;94569.06;;;-6.48
69420;BMP280;71621;52.030;113.516;2024-01-25T07:44:21;94574.06;;;-6.50
69420;BMP280;71621;52.030;113.516;2024-01-25T07:47:25;94572.50;;;-6.59
69420;BMP280;71621;52.030;113.516;2024-01-25T07:50:29;94577.22;;;-6.57
69420;BMP280;71621;52.030;113.516;2024-01-25T07:53:33;94581.25;;;-6.56
69420;BMP280;71621;52.030;113.516;2024-01-25T07:56:36;94576.25;;;-6.54
69420;BMP280;71621;52.030;113.516;2024-01-25T07:59:40;94587.56;;;-6.52
69420;BMP280;71621;52.030;113.516;2024-01-25T08:02:44;94584.75;;;-6.54
69420;BMP280;71621;52.030;113.516;2024-01-25T08:05:48;94582.69;;;-6.61
69420;BMP280;71621;52.030;113.516;2024-01-25T08:08:53;94585.56;;;-6.64
69420;BMP280;71621;52.030;113.516;2024-01-25T08:11:56;94583.03;;;-6.70
69420;BMP280;71621;52.030;113.516;2024-01-25T08:15:00;94582.59;;;-6.74
69420;BMP280;71621;52.030;113.516;2024-01-25T08:18:04;94579.78;;;-6.76
69420;BMP280;71621;52.030;113.516;2024-01-25T08:21:08;94580.03;;;-6.80
69420;BMP280;71621;52.030;113.516;2024-01-25T08:24:11;94580.03;;;-6.80
69420;BMP280;71621;52.030;113.516;2024-01-25T08:27:16;94569.44;;;-6.82
69420;BMP280;71621;52.030;113.516;2024-01-25T08:30:19;94584.75;;;-6.78
69420;BMP280;71621;52.030;113.516;2024-01-25T08:33:23;94593.97;;;-6.77
69420;BMP280;71621;52.030;113.516;2024-01-25T08:36:28;94580.47;;;-6.76
69420;BMP280;71621;52.030;113.516;2024-01-25T08:39:32;94585.25;;;-6.80
69420;BMP280;71621;52.030;113.516;2024-01-25T08:42:36;94586.63;;;-6.98
69420;BMP280;71621;52.030;113.516;2024-01-25T08:45:39;94585.16;;;-7.23
69420;BMP280;71621;52.030;113.516;2024-01-25T08:48:43;94582.72;;;-7.40
69420;BMP280;71621;52.030;113.516;2024-01-25T08:51:48;94582.56;;;-7.53
69420;BMP280;71621;52.030;113.516;2024-01-25T08:54:52;94592.06;;;-7.61
69420;BMP280;71621;52.030;113.516;2024-01-25T08:57:56;94593.09;;;-7.76
69420;BMP280;71621;52.030;113.516;2024-01-25T09:00:59;94591.72;;;-7.82
69420;BMP280;71621;52.030;113.516;2024-01-25T09:04:04;94604.00;;;-7.88
69420;BMP280;71621;52.030;113.516;2024-01-25T09:07:07;94594.41;;;-7.99
69420;BMP280;71621;52.030;113.516;2024-01-25T09:10:11;94598.66;;;-8.07
69420;BMP280;71621;52.030;113.516;2024-01-25T09:13:15;94599.41;;;-8.18
69420;BMP280;71621;52.030;113.516;2024-01-25T09:16:19;94601.34;;;-8.30
69420;BMP280;71621;52.030;113.516;2024-01-25T09:19:23;94605.13;;;-8.36
69420;BMP280;71621;52.030;113.516;2024-01-25T09:22:26;94615.03;;;-8.35
69420;BMP280;71621;52.030;113.516;2024-01-25T09:25:30;94608.69;;;-8.34
69420;BMP280;71621;52.030;113.516;2024-01-25T09:28:34;94612.91;;;-8.36
69420;BMP280;71621;52.030;113.516;2024-01-25T09:31:38;94613.16;;;-8.45
69420;BMP280;71621;52.030;113.516;2024-01-25T09:34:42;94608.72;;;-8.56
69420;BMP280;71621;52.030;113.516;2024-01-25T09:37:46;94620.28;;;-8.68
69420;BMP280;71621;52.030;113.516;2024-01-25T09:40:52;94611.63;;;-8.82
69420;BMP280;71621;52.030;113.516;2024-01-25T09:43:55;94616.56;;;-8.95
69420;BMP280;71621;52.030;113.516;2024-01-25T09:47:03;94625.03;;;-9.06
69420;BMP280;71621;52.030;113.516;2024-01-25T09:50:07;94626.69;;;-9.20
69420;BMP280;71621;52.030;113.516;2024-01-25T09:53:17;94625.50;;;-9.30
69420;BMP280;71621;52.030;113.516;2024-01-25T09:56:21;94627.16;;;-9.33
69420;BMP280;71621;52.030;113.516;2024-01-25T09:59:26;94629.50;;;-9.35
69420;BMP280;71621;52.030;113.516;2024-01-25T10:02:30;94626.69;;;-9.37
69420;BMP280;71621;52.030;113.516;2024-01-25T10:05:34;94629.25;;;-9.48
69420;BMP280;71621;52.030;113.516;2024-01-25T10:08:38;94631.34;;;-9.58
69420;BMP280;71621;52.030;113.516;2024-01-25T10:11:42;94623.81;;;-9.67
69420;BMP280;71621;52.030;113.516;2024-01-25T10:14:55;94634.38;;;-9.76
69420;BMP280;71621;52.030;113.516;2024-01-25T10:17:59;94636.69;;;-9.84
69420;BMP280;71621;52.030;113.516;2024-01-25T10:21:23;94642.31;;;-9.91
69420;BMP280;71621;52.030;113.516;2024-01-25T10:24:27;94643.03;;;-9.90
69420;BMP280;71621;52.030;113.516;2024-01-25T10:27:32;94643.94;;;-9.93
69420;BMP280;71621;52.030;113.516;2024-01-25T10:30:36;94650.22;;;-10.11
69420;BMP280;71621;52.030;113.516;2024-01-25T10:33:40;94645.44;;;-10.24
69420;BMP280;71621;52.030;113.516;2024-01-25T10:36:45;94648.47;;;-10.31
69420;BMP280;71621;52.030;113.516;2024-01-25T10:39:55;94659.69;;;-10.40
69420;BMP280;71621;52.030;113.516;2024-01-25T10:43:00;94650.94;;;-10.53
69420;BMP280;71621;52.030;113.516;2024-01-25T10:46:05;94650.34;;;-10.69
69420;BMP280;71621;52.030;113.516;2024-01-25T10:49:09;94651.22;;;-10.77
69420;BMP280;71621;52.030;113.516;2024-01-25T10:52:13;94659.19;;;-10.81
69420;BMP280;71621;52.030;113.516;2024-01-25T10:55:18;94657.03;;;-10.88
69420;BMP280;71621;52.030;113.516;2024-01-25T10:58:22;94659.31;;;-10.96
69420;BMP280;71621;52.030;113.516;2024-01-25T11:01:27;94662.38;;;-10.92
69420;BMP280;71621;52.030;113.516;2024-01-25T11:04:31;94662.63;;;-10.90
69420;BMP280;71621;52.030;113.516;2024-01-25T11:07:44;94663.34;;;-10.89
69420;BMP280;71621;52.030;113.516;2024-01-25T11:10:51;94661.72;;;-10.87
69420;BMP280;71621;52.030;113.516;2024-01-25T11:13:55;94667.00;;;-11.01
69420;BMP280;71621;52.030;113.516;2024-01-25T11:17:15;94670.66;;;-11.14
69420;BMP280;71621;52.030;113.516;2024-01-25T11:20:23;94671.50;;;-11.22
69420;BMP280;71621;52.030;113.516;2024-01-25T11:23:31;94666.44;;;-11.37
69420;BMP280;71621;52.030;113.516;2024-01-25T11:26:35;94671.91;;;-11.55
69420;BMP280;71621;52.030;113.516;2024-01-25T11:29:40;94675.81;;;-11.60
69420;BMP280;71621;52.030;113.516;2024-01-25T11:32:49;94673.38;;;-11.69
69420;BMP280;71621;52.030;113.516;2024-01-25T11:35:54;94673.13;;;-11.71
69420;BMP280;71621;52.030;113.516;2024-01-25T11:38:58;94675.09;;;-11.81
69420;BMP280;71621;52.030;113.516;2024-01-25T11:42:02;94679.13;;;-11.80
69420;BMP280;71621;52.030;113.516;2024-01-25T11:45:09;94680.47;;;-11.84
69420;BMP280;71621;52.030;113.516;2024-01-25T11:48:14;94687.16;;;-11.93
69420;BMP280;71621;52.030;113.516;2024-01-25T11:51:18;94675.75;;;-12.06
69420;BMP280;71621;52.030;113.516;2024-01-25T11:54:21;94681.44;;;-12.17
69420;BMP280;71621;52.030;113.516;2024-01-25T11:57:25;94686.81;;;-12.21
69420;BMP280;71621;52.030;113.516;2024-01-25T12:00:30;94677.78;;;-12.31
69420;BMP280;71621;52.030;113.516;2024-01-25T12:03:35;94687.78;;;-12.33
69420;BMP280;71621;52.030;113.516;2024-01-25T12:06:41;94685.31;;;-12.42
69420;BMP280;71621;52.030;113.516;2024-01-25T12:09:45;94690.94;;;-12.44
69420;BMP280;71621;52.030;113.516;2024-01-25T12:13:00;94694.13;;;-12.49
69420;BMP280;71621;52.030;113.516;2024-01-25T12:16:04;94690.94;;;-12.58
69420;BMP280;71621;52.030;113.516;2024-01-25T12:19:08;94698.41;;;-12.60
69420;BMP280;71621;52.030;113.516;2024-01-25T12:22:12;94689.16;;;-12.67
69420;BMP280;71621;52.030;113.516;2024-01-25T12:25:23;94694.66;;;-12.74
69420;BMP280;71621;52.030;113.516;2024-01-25T12:28:27;94696.44;;;-12.80
69420;BMP280;71621;52.030;113.516;2024-01-25T12:31:32;94701.06;;;-12.84
69420;BMP280;71621;52.030;113.516;2024-01-25T12:34:35;94697.94;;;-12.89
69420;BMP280;71621;52.030;113.516;2024-01-25T12:37:41;94699.31;;;-12.93
69420;BMP280;71621;52.030;113.516;2024-01-25T12:40:46;94701.31;;;-12.97
69420;BMP280;71621;52.030;113.516;2024-01-25T12:43:52;94692.69;;;-12.94
69420;BMP280;71621;52.030;113.516;2024-01-25T12:46:56;94699.38;;;-12.88
69420;BMP280;71621;52.030;113.516;2024-01-25T12:50:00;94690.50;;;-12.87
69420;BMP280;71621;52.030;113.516;2024-01-25T12:53:05;94696.28;;;-12.92
69420;BMP280;71621;52.030;113.516;2024-01-25T12:56:10;94693.97;;;-13.04
69420;BMP280;71621;52.030;113.516;2024-01-25T12:59:14;94701.41;;;-13.06
69420;BMP280;71621;52.030;113.516;2024-01-25T13:02:18;94697.13;;;-13.09
69420;BMP280;71621;52.030;113.516;2024-01-25T13:05:22;94698.63;;;-13.18
69420;BMP280;71621;52.030;113.516;2024-01-25T13:08:26;94695.81;;;-13.20
69420;BMP280;71621;52.030;113.516;2024-01-25T13:11:30;94696.13;;;-13.27
69420;BMP280;71621;52.030;113.516;2024-01-25T13:14:34;94700.41;;;-13.24
69420;BMP280;71621;52.030;113.516;2024-01-25T13:17:38;94701.06;;;-13.38
69420;BMP280;71621;52.030;113.516;2024-01-25T13:20:42;94695.91;;;-13.53
69420;BMP280;71621;52.030;113.516;2024-01-25T13:23:45;94691.53;;;-13.62
69420;BMP280;71621;52.030;113.516;2024-01-25T13:26:49;94693.56;;;-13.66
69420;BMP280;71621;52.030;113.516;2024-01-25T13:29:53;94692.44;;;-13.74
69420;BMP280;71621;52.030;113.516;2024-01-25T13:32:58;94685.66;;;-13.86
69420;BMP280;71621;52.030;113.516;2024-01-25T13:36:02;94689.44;;;-13.96
69420;BMP280;71621;52.030;113.516;2024-01-25T13:39:11;94691.50;;;-14.09
69420;BMP280;71621;52.030;113.516;2024-01-25T13:42:15;94695.25;;;-14.20
69420;BMP280;71621;52.030;113.516;2024-01-25T13:45:19;94690.97;;;-14.23
69420;BMP280;71621;52.030;113.516;2024-01-25T13:48:23;94696.53;;;-14.24
69420;BMP280;71621;52.030;113.516;2024-01-25T13:51:27;94701.53;;;-14.21
69420;BMP280;71621;52.030;113.516;2024-01-25T13:54:30;94701.41;;;-14.26
69420;BMP280;71621;52.030;113.516;2024-01-25T13:57:34;94697.00;;;-14.26
69420;BMP280;71621;52.030;113.516;2024-01-25T14:00:39;94700.84;;;-14.30
69420;BMP280;71621;52.030;113.516;2024-01-25T14:03:43;94711.56;;;-14.41
69420;BMP280;71621;52.030;113.516;2024-01-25T14:06:47;94700.91;;;-14.49
69420;BMP280;71621;52.030;113.516;2024-01-25T14:09:52;94706.94;;;-14.61
69420;BMP280;71621;52.030;113.516;2024-01-25T14:12:56;94714.22;;;-14.69
69420;BMP280;71621;52.030;113.516;2024-01-25T14:16:01;94712.38;;;-14.77
69420;BMP280;71621;52.030;113.516;2024-01-25T14:19:05;94712.91;;;-14.82
69420;BMP280;71621;52.030;113.516;2024-01-25T14:22:09;94712.53;;;-14.81
69420;BMP280;71621;52.030;113.516;2024-01-25T14:25:30;94714.50;;;-14.76
69420;BMP280;71621;52.030;113.516;2024-01-25T14:28:34;94713.06;;;-14.77
69420;BMP280;71621;52.030;113.516;2024-01-25T14:31:38;94715.94;;;-14.75
69420;BMP280;71621;52.030;113.516;2024-01-25T14:34:42;94719.06;;;-14.71
69420;BMP280;71621;52.030;113.516;2024-01-25T14:37:45;94720.94;;;-14.80
69420;BMP280;71621;52.030;113.516;2024-01-25T14:40:49;94725.91;;;-14.86
69420;BMP280;71621;52.030;113.516;2024-01-25T14:44:01;94717.22;;;-14.89
69420;BMP280;71621;52.030;113.516;2024-01-25T14:47:05;94725.63;;;-14.88
69420;BMP280;71621;52.030;113.516;2024-01-25T14:50:09;94727.47;;;-14.89
69420;BMP280;71621;52.030;113.516;2024-01-25T14:53:13;94723.66;;;-15.02
69420;BMP280;71621;52.030;113.516;2024-01-25T14:56:17;94720.50;;;-14.97
69420;BMP280;71621;52.030;113.516;2024-01-25T14:59:21;94719.34;;;-14.96
69420;BMP280;71621;52.030;113.516;2024-01-25T15:02:24;94718.94;;;-14.86
69420;BMP280;71621;52.030;113.516;2024-01-25T15:05:28;94718.38;;;-14.90
69420;BMP280;71621;52.030;113.516;2024-01-25T15:08:32;94708.84;;;-14.98
69420;BMP280;71621;52.030;113.516;2024-01-25T15:11:36;94715.53;;;-15.10
69420;BMP280;71621;52.030;113.516;2024-01-25T15:14:39;94711.97;;;-15.13
69420;BMP280;71621;52.030;113.516;2024-01-25T15:17:43;94713.50;;;-15.06
69420;BMP280;71621;52.030;113.516;2024-01-25T15:20:48;94712.09;;;-15.07
69420;BMP280;71621;52.030;113.516;2024-01-25T15:23:52;94710.81;;;-15.12
69420;BMP280;71621;52.030;113.516;2024-01-25T15:26:56;94717.94;;;-15.06
69420;BMP280;71621;52.030;113.516;2024-01-25T15:29:59;94720.66;;;-15.10
69420;BMP280;71621;52.030;113.516;2024-01-25T15:33:03;94717.50;;;-15.14
69420;BMP280;71621;52.030;113.516;2024-01-25T15:36:09;94710.81;;;-15.12
69420;BMP280;71621;52.030;113.516;2024-01-25T15:39:12;94704.28;;;-15.13
69420;BMP280;71621;52.030;113.516;2024-01-25T15:42:17;94718.34;;;-15.17
69420;BMP280;71621;52.030;113.516;2024-01-25T15:45:21;94717.66;;;-15.18
69420;BMP280;71621;52.030;113.516;2024-01-25T15:48:25;94713.41;;;-15.21
69420;BMP280;71621;52.030;113.516;2024-01-25T15:51:29;94716.22;;;-15.19
69420;BMP280;71621;52.030;113.516;2024-01-25T15:54:33;94714.09;;;-15.20
69420;BMP280;71621;52.030;113.516;2024-01-25T15:57:37;94709.41;;;-15.22
69420;BMP280;71621;52.030;113.516;2024-01-25T16:00:41;94700.84;;;-15.28
69420;BMP280;71621;52.030;113.516;2024-01-25T16:03:45;94694.72;;;-15.30
69420;BMP280;71621;52.030;113.516;2024-01-25T16:06:49;94697.72;;;-15.32
69420;BMP280;71621;52.030;113.516;2024-01-25T16:09:52;94692.59;;;-15.41
69420;BMP280;71621;52.030;113.516;2024-01-25T16:12:57;94702.66;;;-15.47
69420;BMP280;71621;52.030;113.516;2024-01-25T16:16:01;94705.56;;;-15.45
69420;BMP280;71621;52.030;113.516;2024-01-25T16:19:04;94694.00;;;-15.49
69420;BMP280;71621;52.030;113.516;2024-01-25T16:22:08;94687.31;;;-15.56
69420;BMP280;71621;52.030;113.516;2024-01-25T16:25:12;94687.72;;;-15.58
69420;BMP280;71621;52.030;113.516;2024-01-25T16:28:15;94684.44;;;-15.58
69420;BMP280;71621;52.030;113.516;2024-01-25T16:31:20;94673.94;;;-15.60
69420;BMP280;71621;52.030;113.516;2024-01-25T16:34:24;94676.34;;;-15.66
69420;BMP280;71621;52.030;113.516;2024-01-25T16:37:29;94680.16;;;-15.70
69420;BMP280;71621;52.030;113.516;2024-01-25T16:40:32;94680.28;;;-15.74
69420;BMP280;71621;52.030;113.516;2024-01-25T16:43:36;94683.72;;;-15.77
69420;BMP280;71621;52.030;113.516;2024-01-25T16:46:40;94676.59;;;-15.82
69420;BMP280;71621;52.030;113.516;2024-01-25T16:49:43;94683.56;;;-15.83
69420;BMP280;71621;52.030;113.516;2024-01-25T16:52:48;94680.72;;;-15.85
69420;BMP280;71621;52.030;113.516;2024-01-25T16:55:52;94679.69;;;-15.87
69420;BMP280;71621;52.030;113.516;2024-01-25T16:58:57;94678.13;;;-15.94
69420;BMP280;71621;52.030;113.516;2024-01-25T17:02:02;94680.78;;;-15.97